createdAt,value
2022-12-31T00:00:09.957Z,100270.41
2022-12-31T00:02:37.293Z,100280.06
2022-12-31T00:05:05.145Z,100271.50
2022-12-31T00:10:00.596Z,100267.94
2022-12-31T00:12:30.722Z,100264.34
2022-12-31T00:14:59.009Z,100269.50
2022-12-31T00:17:26.247Z,100270.19
2022-12-31T00:19:53.458Z,100268.53
2022-12-31T00:22:20.649Z,100274.38
2022-12-31T00:24:48.505Z,100278.78
2022-12-31T00:27:16.293Z,100270.09
2022-12-31T00:29:44.625Z,100293.66
2022-12-31T00:32:12.037Z,100287.59
2022-12-31T00:34:40.073Z,100281.28
2022-12-31T00:37:19.408Z,100280.44
2022-12-31T00:40:06.614Z,100283.81
2022-12-31T00:42:46.074Z,100293.44
2022-12-31T00:45:51.912Z,100292.72
2022-12-31T00:48:18.395Z,100294.50
2022-12-31T00:50:53.232Z,100299.63
2022-12-31T00:53:48.514Z,100297.13
2022-12-31T00:59:55.804Z,100289.13
2022-12-31T01:02:34.764Z,100293.66
2022-12-31T01:05:01.400Z,100281.50
2022-12-31T01:07:29.595Z,100280.81
2022-12-31T01:09:57.061Z,100279.25
2022-12-31T01:12:25.229Z,100281.97
2022-12-31T01:14:53.562Z,100286.47
2022-12-31T01:17:21.170Z,100285.53
2022-12-31T01:19:49.511Z,100284.81
2022-12-31T01:22:20.139Z,100291.13
2022-12-31T01:24:46.716Z,100298.13
2022-12-31T01:27:32.049Z,100281.69
2022-12-31T01:30:00.595Z,100286.84
2022-12-31T01:32:29.076Z,100287.66
2022-12-31T01:35:14.417Z,100287.06
2022-12-31T01:37:50.951Z,100298.56
2022-12-31T01:40:17.707Z,100294.41
2022-12-31T01:42:44.222Z,100300.47
2022-12-31T01:45:17.568Z,100300.47
2022-12-31T01:47:51.884Z,100292.72
2022-12-31T01:50:24.378Z,100298.06
2022-12-31T01:52:56.844Z,100293.78
2022-12-31T01:55:29.714Z,100294.75
2022-12-31T01:58:04.236Z,100303.56
2022-12-31T02:00:31.922Z,100309.84
2022-12-31T02:02:59.109Z,100313.41
2022-12-31T02:05:34.615Z,100314.34
2022-12-31T02:08:03.192Z,100317.06
2022-12-31T02:10:30.657Z,100316.25
2022-12-31T02:12:57.759Z,100301.59
2022-12-31T02:15:37.515Z,100279.00
2022-12-31T02:18:15.184Z,100284.22
2022-12-31T02:21:16.341Z,100280.88
2022-12-31T02:24:13.228Z,100285.50
2022-12-31T02:27:07.712Z,100282.16
2022-12-31T02:30:04.301Z,100286.66
2022-12-31T02:32:48.754Z,100267.41
2022-12-31T02:35:45.079Z,100249.91
2022-12-31T02:38:19.100Z,100255.16
2022-12-31T02:40:45.838Z,100252.66
2022-12-31T02:43:12.534Z,100256.31
2022-12-31T02:45:43.226Z,100253.91
2022-12-31T02:48:28.538Z,100257.50
2022-12-31T02:51:24.073Z,100277.69
2022-12-31T02:54:19.919Z,100288.38
2022-12-31T02:57:01.520Z,100293.59
2022-12-31T02:59:59.049Z,100297.88
2022-12-31T03:02:30.696Z,100304.06
2022-12-31T03:04:57.884Z,100315.50
2022-12-31T03:07:29.892Z,100312.97
2022-12-31T03:09:56.487Z,100329.53
2022-12-31T03:12:45.320Z,100321.88
2022-12-31T03:15:20.613Z,100314.97
2022-12-31T03:18:39.105Z,100317.78
2022-12-31T03:21:31.328Z,100318.00
2022-12-31T03:24:16.477Z,100321.56
2022-12-31T03:26:42.956Z,100321.56
2022-12-31T03:29:09.407Z,100331.34
2022-12-31T03:31:35.858Z,100330.47
2022-12-31T03:34:02.571Z,100320.09
2022-12-31T03:36:29.040Z,100316.75
2022-12-31T03:38:55.980Z,100327.19
2022-12-31T03:41:22.392Z,100317.81
2022-12-31T03:43:49.025Z,100316.94
2022-12-31T03:46:15.516Z,100320.53
2022-12-31T03:48:42.038Z,100317.19
2022-12-31T03:51:08.729Z,100292.91
2022-12-31T03:53:35.659Z,100311.31
2022-12-31T03:56:02.215Z,100304.53
2022-12-31T03:58:28.647Z,100308.06
2022-12-31T04:00:55.152Z,100316.13
2022-12-31T04:03:21.933Z,100314.47
2022-12-31T04:05:55.712Z,100313.53
2022-12-31T04:08:22.301Z,100300.69
2022-12-31T04:10:48.881Z,100299.00
2022-12-31T04:13:15.374Z,100293.75
2022-12-31T04:15:41.856Z,100290.44
2022-12-31T04:18:08.397Z,100293.16
2022-12-31T04:20:34.868Z,100282.59
2022-12-31T04:23:01.499Z,100276.63
2022-12-31T04:25:28.015Z,100275.78
2022-12-31T04:27:54.557Z,100268.03
2022-12-31T04:30:21.022Z,100268.28
2022-12-31T04:32:47.540Z,100268.28
2022-12-31T04:35:13.952Z,100280.63
2022-12-31T04:37:40.502Z,100275.59
2022-12-31T04:40:08.701Z,100288.66
2022-12-31T04:42:36.346Z,100289.63
2022-12-31T04:45:03.264Z,100282.59
2022-12-31T04:47:29.996Z,100280.81
2022-12-31T04:49:56.422Z,100296.50
2022-12-31T04:52:23.362Z,100295.78
2022-12-31T04:54:49.921Z,100287.00
2022-12-31T04:57:16.413Z,100286.88
2022-12-31T04:59:43.028Z,100282.50
2022-12-31T05:02:09.710Z,100291.06
2022-12-31T05:04:36.292Z,100286.69
2022-12-31T05:07:03.133Z,100287.50
2022-12-31T05:09:29.761Z,100290.13
2022-12-31T05:11:56.381Z,100304.88
2022-12-31T05:14:22.904Z,100297.75
2022-12-31T05:16:49.525Z,100281.22
2022-12-31T05:19:16.062Z,100305.59
2022-12-31T05:21:43.755Z,100290.75
2022-12-31T05:24:10.206Z,100295.88
2022-12-31T05:26:36.686Z,100284.34
2022-12-31T05:29:03.271Z,100297.34
2022-12-31T05:31:29.863Z,100279.66
2022-12-31T05:33:56.665Z,100293.34
2022-12-31T05:36:23.241Z,100304.22
2022-12-31T05:38:49.691Z,100311.97
2022-12-31T05:41:16.208Z,100313.63
2022-12-31T05:43:42.746Z,100304.63
2022-12-31T05:46:09.283Z,100303.56
2022-12-31T05:48:35.774Z,100305.88
2022-12-31T05:51:02.292Z,100302.31
2022-12-31T05:53:28.813Z,100291.63
2022-12-31T05:55:55.234Z,100302.84
2022-12-31T05:58:21.725Z,100300.84
2022-12-31T06:00:48.303Z,100304.06
2022-12-31T06:03:15.112Z,100300.50
2022-12-31T06:05:42.829Z,100299.44
2022-12-31T06:08:10.780Z,100304.59
2022-12-31T06:10:37.634Z,100300.06
2022-12-31T06:13:04.754Z,100291.28
2022-12-31T06:15:31.481Z,100295.44
2022-12-31T06:17:58.054Z,100302.38
2022-12-31T06:20:24.648Z,100309.34
2022-12-31T06:22:51.229Z,100303.06
2022-12-31T06:25:17.720Z,100307.38
2022-12-31T06:27:44.261Z,100308.09
2022-12-31T06:30:11.392Z,100312.50
2022-12-31T06:32:39.457Z,100301.19
2022-12-31T06:35:07.085Z,100314.16
2022-12-31T06:37:35.108Z,100319.19
2022-12-31T06:40:01.905Z,100317.06
2022-12-31T06:42:30.884Z,100328.16
2022-12-31T06:44:58.853Z,100328.88
2022-12-31T06:47:25.901Z,100327.94
2022-12-31T06:49:53.102Z,100334.63
2022-12-31T06:52:20.541Z,100334.28
2022-12-31T06:54:48.290Z,100340.72
2022-12-31T06:57:15.493Z,100338.75
2022-12-31T06:59:42.365Z,100340.69
2022-12-31T07:02:27.242Z,100326.31
2022-12-31T07:05:27.527Z,100323.94
2022-12-31T07:08:00.926Z,100330.44
2022-12-31T07:10:36.212Z,100327.09
2022-12-31T07:13:21.647Z,100324.03
2022-12-31T07:16:30.364Z,100315.34
2022-12-31T07:19:24.843Z,100319.53
2022-12-31T07:21:54.044Z,100319.28
2022-12-31T07:24:24.363Z,100315.34
2022-12-31T07:27:08.257Z,100316.78
2022-12-31T07:29:53.144Z,100322.41
2022-12-31T07:32:57.373Z,100322.31
2022-12-31T07:35:45.253Z,100322.91
2022-12-31T07:38:21.132Z,100328.75
2022-12-31T07:40:53.816Z,100332.22
2022-12-31T07:43:31.155Z,100337.00
2022-12-31T07:46:32.011Z,100336.06
2022-12-31T07:48:58.925Z,100336.19
2022-12-31T07:51:25.866Z,100360.59
2022-12-31T07:53:52.395Z,100335.84
2022-12-31T07:56:19.005Z,100354.44
2022-12-31T07:59:05.162Z,100351.56
2022-12-31T08:01:41.906Z,100360.28
2022-12-31T08:04:22.706Z,100341.09
2022-12-31T08:06:55.505Z,100343.47
2022-12-31T08:09:40.518Z,100354.06
2022-12-31T08:12:08.072Z,100350.38
2022-12-31T08:14:44.173Z,100362.53
2022-12-31T08:17:15.777Z,100358.97
2022-12-31T08:19:43.830Z,100363.50
2022-12-31T08:22:48.067Z,100356.59
2022-12-31T08:25:23.533Z,100348.81
2022-12-31T08:27:56.232Z,100359.22
2022-12-31T08:30:26.619Z,100366.34
2022-12-31T08:33:05.275Z,100363.72
2022-12-31T08:35:48.576Z,100383.78
2022-12-31T08:38:41.802Z,100394.28
2022-12-31T08:41:20.603Z,100421.19
2022-12-31T08:44:14.738Z,100410.47
2022-12-31T08:46:54.495Z,100421.91
2022-12-31T08:49:21.124Z,100425.59
2022-12-31T08:51:48.631Z,100439.78
2022-12-31T08:54:15.904Z,100446.81
2022-12-31T08:57:10.150Z,100451.34
2022-12-31T09:00:04.535Z,100458.25
2022-12-31T09:02:53.171Z,100473.28
2022-12-31T09:05:55.203Z,100470.66
2022-12-31T09:08:38.256Z,100467.19
2022-12-31T09:11:19.168Z,100474.09
2022-12-31T09:14:23.283Z,100482.69
2022-12-31T09:16:49.776Z,100481.63
2022-12-31T09:19:16.433Z,100478.16
2022-12-31T09:21:44.450Z,100477.84
2022-12-31T09:24:15.692Z,100476.50
2022-12-31T09:27:27.775Z,100481.31
2022-12-31T09:30:07.797Z,100490.38
2022-12-31T09:32:47.913Z,100483.00
2022-12-31T09:35:36.309Z,100481.09
2022-12-31T09:38:24.734Z,100486.09
2022-12-31T09:40:59.708Z,100487.91
2022-12-31T09:43:35.480Z,100487.66
2022-12-31T09:46:17.459Z,100488.16
2022-12-31T09:48:55.924Z,100501.88
2022-12-31T09:51:30.117Z,100499.97
2022-12-31T09:54:15.106Z,100497.09
2022-12-31T09:57:25.419Z,100501.06
2022-12-31T10:00:10.934Z,100498.22
2022-12-31T10:02:59.644Z,100496.03
2022-12-31T10:06:04.503Z,100493.31
2022-12-31T10:08:40.161Z,100498.94
2022-12-31T10:11:18.662Z,100494.97
2022-12-31T10:14:12.539Z,100493.44
2022-12-31T10:17:04.025Z,100487.34
2022-12-31T10:19:52.418Z,100485.88
2022-12-31T10:22:34.065Z,100494.72
2022-12-31T10:25:10.375Z,100495.69
2022-12-31T10:27:49.651Z,100494.72
2022-12-31T10:30:21.164Z,100494.22
2022-12-31T10:33:07.888Z,100510.22
2022-12-31T10:35:53.964Z,100505.69
2022-12-31T10:41:55.598Z,100508.22
2022-12-31T10:44:39.916Z,100505.69
2022-12-31T10:47:30.010Z,100494.72
2022-12-31T10:50:19.546Z,100507.41
2022-12-31T10:53:22.798Z,100500.41
2022-12-31T10:56:00.579Z,100504.13
2022-12-31T10:59:03.785Z,100507.72
2022-12-31T11:01:32.891Z,100509.75
2022-12-31T11:04:18.638Z,100499.25
2022-12-31T11:07:37.607Z,100505.31
2022-12-31T11:10:33.584Z,100505.91
2022-12-31T11:13:31.180Z,100511.78
2022-12-31T11:16:16.118Z,100502.97
2022-12-31T11:18:54.690Z,100510.47
2022-12-31T11:21:41.012Z,100491.97
2022-12-31T11:24:37.934Z,100506.44
2022-12-31T11:27:25.906Z,100487.53
2022-12-31T11:30:07.113Z,100496.63
2022-12-31T11:32:46.345Z,100500.91
2022-12-31T11:35:22.182Z,100491.34
2022-12-31T11:38:10.203Z,100500.91
2022-12-31T11:40:42.455Z,100509.75
2022-12-31T11:43:37.545Z,100493.97
2022-12-31T11:46:10.531Z,100506.16
2022-12-31T11:49:16.327Z,100504.84
2022-12-31T11:52:21.762Z,100516.47
2022-12-31T11:54:54.405Z,100502.78
2022-12-31T11:57:29.985Z,100497.38
2022-12-31T12:00:06.937Z,100501.47
2022-12-31T12:02:41.716Z,100491.88
2022-12-31T12:05:10.967Z,100504.28
2022-12-31T12:07:38.469Z,100499.75
2022-12-31T12:10:21.047Z,100500.09
2022-12-31T12:12:47.744Z,100485.25
2022-12-31T12:15:21.034Z,100488.94
2022-12-31T12:17:52.688Z,100489.94
2022-12-31T12:20:29.335Z,100488.25
2022-12-31T12:22:58.304Z,100491.38
2022-12-31T12:25:28.152Z,100480.16
2022-12-31T12:27:54.738Z,100494.25
2022-12-31T12:30:26.179Z,100489.72
2022-12-31T12:33:02.345Z,100476.34
2022-12-31T12:35:31.997Z,100481.19
2022-12-31T12:38:05.493Z,100485.63
2022-12-31T12:40:34.632Z,100495.31
2022-12-31T12:43:02.621Z,100470.94
2022-12-31T12:45:51.738Z,100486.47
2022-12-31T12:48:39.237Z,100478.97
2022-12-31T12:51:33.561Z,100484.91
2022-12-31T12:54:03.676Z,100497.22
2022-12-31T12:56:52.233Z,100492.69
2022-12-31T12:59:40.876Z,100487.03
2022-12-31T13:02:41.834Z,100508.91
2022-12-31T13:05:28.292Z,100492.88
2022-12-31T13:08:18.216Z,100512.03
2022-12-31T13:11:18.302Z,100502.44
2022-12-31T13:14:20.098Z,100512.84
2022-12-31T13:17:07.209Z,100506.28
2022-12-31T13:19:39.072Z,100517.06
2022-12-31T13:22:22.674Z,100520.19
2022-12-31T13:24:58.678Z,100516.84
2022-12-31T13:27:39.118Z,100519.59
2022-12-31T13:30:19.765Z,100516.28
2022-12-31T13:32:51.783Z,100522.75
2022-12-31T13:35:36.969Z,100520.22
2022-12-31T13:38:14.802Z,100515.09
2022-12-31T13:41:02.185Z,100538.03
2022-12-31T13:43:38.149Z,100534.81
2022-12-31T13:46:16.325Z,100533.28
2022-12-31T13:49:21.307Z,100540.22
2022-12-31T13:51:58.777Z,100506.03
2022-12-31T13:54:56.090Z,100537.59
2022-12-31T13:57:46.192Z,100539.59
2022-12-31T14:00:24.511Z,100530.06
2022-12-31T14:03:02.843Z,100533.66
2022-12-31T14:05:38.254Z,100533.28
2022-12-31T14:08:06.482Z,100542.13
2022-12-31T14:10:57.595Z,100531.38
2022-12-31T14:13:38.610Z,100525.88
2022-12-31T14:16:20.452Z,100518.66
2022-12-31T14:19:31.607Z,100512.81
2022-12-31T14:22:08.933Z,100524.16
2022-12-31T14:25:14.382Z,100541.50
2022-12-31T14:27:44.699Z,100526.31
2022-12-31T14:30:23.286Z,100544.63
2022-12-31T14:33:28.169Z,100562.44
2022-12-31T14:36:19.842Z,100565.66
2022-12-31T14:39:33.081Z,100566.06
2022-12-31T14:42:23.015Z,100559.31
2022-12-31T14:45:17.733Z,100568.16
2022-12-31T14:47:59.295Z,100563.50
2022-12-31T14:50:28.646Z,100559.09
2022-12-31T14:53:06.874Z,100571.91
2022-12-31T14:55:38.736Z,100587.66
2022-12-31T14:58:28.851Z,100581.44
2022-12-31T15:00:59.215Z,100588.59
2022-12-31T15:03:43.000Z,100587.16
2022-12-31T15:06:37.702Z,100580.47
2022-12-31T15:09:20.399Z,100585.84
2022-12-31T15:12:05.830Z,100602.69
2022-12-31T15:15:00.400Z,100592.28
2022-12-31T15:17:41.966Z,100592.66
2022-12-31T15:20:27.783Z,100580.47
2022-12-31T15:22:54.804Z,100569.00
2022-12-31T15:25:40.467Z,100566.84
2022-12-31T15:28:26.800Z,100572.81
2022-12-31T15:30:58.781Z,100561.63
2022-12-31T15:33:31.917Z,100568.06
2022-12-31T15:36:18.636Z,100551.66
2022-12-31T15:38:45.939Z,100545.81
2022-12-31T15:41:46.226Z,100542.66
2022-12-31T15:44:44.967Z,100540.53
2022-12-31T15:47:31.471Z,100558.22
2022-12-31T15:50:06.698Z,100545.19
2022-12-31T15:52:43.679Z,100557.72
2022-12-31T15:55:23.434Z,100538.81
2022-12-31T15:57:50.763Z,100536.63
2022-12-31T16:00:22.723Z,100548.84
2022-12-31T16:02:54.473Z,100544.53
2022-12-31T16:05:26.625Z,100554.78
2022-12-31T16:07:58.933Z,100553.84
2022-12-31T16:10:29.336Z,100529.69
2022-12-31T16:12:58.002Z,100548.22
2022-12-31T16:15:29.697Z,100562.44
2022-12-31T16:18:05.956Z,100560.19
2022-12-31T16:20:34.596Z,100553.59
2022-12-31T16:23:03.415Z,100545.97
2022-12-31T16:25:32.932Z,100542.63
2022-12-31T16:28:02.604Z,100532.22
2022-12-31T16:30:31.050Z,100530.03
2022-12-31T16:33:03.914Z,100523.81
2022-12-31T16:35:36.885Z,100522.28
2022-12-31T16:38:18.028Z,100536.38
2022-12-31T16:41:04.758Z,100538.06
2022-12-31T16:43:31.284Z,100531.00
2022-12-31T16:46:09.062Z,100528.38
2022-12-31T16:48:36.239Z,100516.06
2022-12-31T16:51:03.567Z,100530.78
2022-12-31T16:53:36.470Z,100524.69
2022-12-31T16:56:11.267Z,100539.50
2022-12-31T16:58:42.414Z,100539.25
2022-12-31T17:01:22.024Z,100528.97
2022-12-31T17:03:56.401Z,100527.31
2022-12-31T17:06:23.352Z,100508.16
2022-12-31T17:08:55.858Z,100518.69
2022-12-31T17:11:35.630Z,100524.44
2022-12-31T17:14:05.368Z,100533.31
2022-12-31T17:16:34.467Z,100526.63
2022-12-31T17:19:01.616Z,100536.06
2022-12-31T17:21:31.630Z,100525.53
2022-12-31T17:24:04.320Z,100513.94
2022-12-31T17:26:33.893Z,100520.50
2022-12-31T17:29:02.617Z,100515.53
2022-12-31T17:31:40.788Z,100511.09
2022-12-31T17:34:13.367Z,100505.84
2022-12-31T17:37:03.919Z,100521.25
2022-12-31T17:39:50.925Z,100516.13
2022-12-31T17:42:28.242Z,100521.13
2022-12-31T17:44:58.898Z,100510.72
2022-12-31T17:47:33.538Z,100524.00
2022-12-31T17:50:25.150Z,100516.94
2022-12-31T17:53:10.856Z,100528.28
2022-12-31T17:55:37.815Z,100514.44
2022-12-31T17:58:06.605Z,100527.22
2022-12-31T18:00:36.671Z,100530.28
2022-12-31T18:03:03.720Z,100526.97
2022-12-31T18:05:30.265Z,100528.75
2022-12-31T18:07:56.940Z,100529.59
2022-12-31T18:10:25.297Z,100539.97
2022-12-31T18:12:52.037Z,100533.06
2022-12-31T18:15:21.690Z,100525.75
2022-12-31T18:17:48.930Z,100532.22
2022-12-31T18:20:16.039Z,100536.91
2022-12-31T18:22:43.761Z,100535.47
2022-12-31T18:25:19.761Z,100527.31
2022-12-31T18:27:46.941Z,100525.66
2022-12-31T18:30:13.740Z,100520.25
2022-12-31T18:32:41.606Z,100521.06
2022-12-31T18:35:58.140Z,100526.44
2022-12-31T18:38:14.927Z,100528.25
2022-12-31T18:40:44.367Z,100522.03
2022-12-31T18:43:16.550Z,100528.25
2022-12-31T18:45:43.625Z,100533.41
2022-12-31T18:48:10.290Z,100532.56
2022-12-31T18:50:37.846Z,100513.91
2022-12-31T18:53:04.723Z,100520.56
2022-12-31T18:55:34.406Z,100527.50
2022-12-31T18:58:01.052Z,100522.38
2022-12-31T19:00:27.571Z,100529.28
2022-12-31T19:02:54.248Z,100534.31
2022-12-31T19:05:23.353Z,100535.63
2022-12-31T19:07:50.128Z,100540.91
2022-12-31T19:10:16.930Z,100547.47
2022-12-31T19:12:44.486Z,100550.94
2022-12-31T19:15:35.225Z,100552.59
2022-12-31T19:18:03.223Z,100556.19
2022-12-31T19:20:30.548Z,100554.38
2022-12-31T19:22:57.877Z,100558.44
2022-12-31T19:25:28.388Z,100562.28
2022-12-31T19:27:55.031Z,100553.56
2022-12-31T19:30:25.161Z,100565.75
2022-12-31T19:32:52.349Z,100553.81
2022-12-31T19:35:20.252Z,100548.09
2022-12-31T19:37:48.987Z,100550.84
2022-12-31T19:40:18.932Z,100537.94
2022-12-31T19:42:46.189Z,100541.16
2022-12-31T19:45:18.086Z,100556.69
2022-12-31T19:47:45.537Z,100536.22
2022-12-31T19:50:17.842Z,100560.03
2022-12-31T19:52:45.519Z,100557.75
2022-12-31T19:55:15.098Z,100547.81
2022-12-31T19:57:42.172Z,100571.97
2022-12-31T20:00:11.371Z,100577.47
2022-12-31T20:02:38.326Z,100571.78
2022-12-31T20:05:05.415Z,100571.97
2022-12-31T20:07:31.985Z,100555.34
2022-12-31T20:09:58.435Z,100571.25
2022-12-31T20:12:24.981Z,100564.19
2022-12-31T20:14:51.444Z,100580.25
2022-12-31T20:17:18.126Z,100581.09
2022-12-31T20:19:44.624Z,100577.25
2022-12-31T20:22:11.437Z,100575.94
2022-12-31T20:24:38.217Z,100581.34
2022-12-31T20:27:04.949Z,100593.75
2022-12-31T20:29:31.481Z,100601.31
2022-12-31T20:31:57.960Z,100588.00
2022-12-31T20:34:24.564Z,100573.88
2022-12-31T20:36:51.072Z,100580.31
2022-12-31T20:39:17.666Z,100588.69
2022-12-31T20:41:44.293Z,100583.66
2022-12-31T20:44:10.894Z,100575.78
2022-12-31T20:46:37.391Z,100586.63
2022-12-31T20:49:05.225Z,100583.41
2022-12-31T20:51:34.232Z,100588.28
2022-12-31T20:54:05.133Z,100595.09
2022-12-31T20:56:34.444Z,100581.63
2022-12-31T20:59:01.670Z,100582.66
2022-12-31T21:01:47.782Z,100594.03
2022-12-31T21:04:15.705Z,100591.78
2022-12-31T21:06:42.281Z,100594.41
2022-12-31T21:09:08.963Z,100599.53
2022-12-31T21:11:54.840Z,100589.59
2022-12-31T21:14:21.426Z,100605.13
2022-12-31T21:16:48.005Z,100602.91
2022-12-31T21:19:14.505Z,100605.25
2022-12-31T21:21:40.936Z,100605.13
2022-12-31T21:24:07.741Z,100593.63
2022-12-31T21:26:34.616Z,100613.75
2022-12-31T21:29:01.113Z,100614.44
2022-12-31T21:31:27.678Z,100608.09
2022-12-31T21:33:54.143Z,100625.13
2022-12-31T21:36:20.564Z,100613.22
2022-12-31T21:38:47.000Z,100629.59
2022-12-31T21:41:34.966Z,100632.63
2022-12-31T21:44:02.285Z,100647.25
2022-12-31T21:46:29.397Z,100644.72
2022-12-31T21:48:58.780Z,100631.47
2022-12-31T21:51:26.336Z,100649.16
2022-12-31T21:53:53.086Z,100652.19
2022-12-31T21:56:21.343Z,100640.81
2022-12-31T21:59:14.461Z,100641.66
2022-12-31T22:01:59.879Z,100644.41
2022-12-31T22:07:13.111Z,100644.41
2022-12-31T22:09:39.564Z,100649.78
2022-12-31T22:12:06.302Z,100643.56
2022-12-31T22:14:32.686Z,100639.34
2022-12-31T22:16:59.193Z,100640.44
2022-12-31T22:19:25.963Z,100623.31
2022-12-31T22:21:52.453Z,100645.69
2022-12-31T22:24:18.852Z,100632.38
2022-12-31T22:26:46.950Z,100641.81
2022-12-31T22:29:13.960Z,100647.34
2022-12-31T22:31:40.528Z,100638.59
2022-12-31T22:34:07.160Z,100651.78
2022-12-31T22:36:33.757Z,100634.53
2022-12-31T22:39:00.220Z,100644.56
2022-12-31T22:41:27.600Z,100656.44
2022-12-31T22:44:03.012Z,100643.41
2022-12-31T22:46:36.043Z,100633.69
2022-12-31T22:49:05.544Z,100650.66
2022-12-31T22:51:55.910Z,100656.22
2022-12-31T22:54:19.317Z,100652.22
2022-12-31T22:56:45.764Z,100661.53
2022-12-31T22:59:12.268Z,100663.56
2022-12-31T23:01:38.839Z,100656.44
2022-12-31T23:04:05.662Z,100659.53
2022-12-31T23:06:32.347Z,100655.59
2022-12-31T23:09:17.464Z,100661.72
2022-12-31T23:11:43.979Z,100678.59
2022-12-31T23:14:35.608Z,100675.00
2022-12-31T23:17:29.745Z,100672.59
2022-12-31T23:20:18.563Z,100686.09
2022-12-31T23:23:06.921Z,100683.13
2022-12-31T23:25:35.978Z,100691.34
2022-12-31T23:28:05.832Z,100697.09
2022-12-31T23:30:32.874Z,100681.31
2022-12-31T23:32:59.666Z,100695.16
2022-12-31T23:35:26.236Z,100699.09
2022-12-31T23:37:52.729Z,100704.75
2022-12-31T23:40:21.638Z,100687.50
2022-12-31T23:42:51.999Z,100707.50
2022-12-31T23:45:18.525Z,100704.66
2022-12-31T23:47:44.971Z,100702.38
2022-12-31T23:50:11.396Z,100709.22
2022-12-31T23:52:37.838Z,100717.69
2022-12-31T23:55:04.814Z,100716.38
2022-12-31T23:57:31.303Z,100714.72
2022-12-31T23:59:57.816Z,100711.59
